Time;durP1;ratioP1;P1;durP2;ratioP2;P2;SDS_P1;SDS_P2;PMS_P1;PMS_P2;Temp;Humidity;BMP_temperature;BMP_pressure;BME280_temperature;BME280_humidity;BME280_pressure;Samples;Min_cycle;Max_cycle;Signal;HPM_P1;HPM_P2
2021/11/09 00:01:52;;;;;;;13.73;6.77;;;10.50;99.90;;;;;;5013337;28;20329;-45
2021/11/09 00:04:20;;;;;;;8.73;5.50;;;10.30;99.90;;;;;;5016982;28;20529;-47
2021/11/09 00:06:54;;;;;;;12.00;6.57;;;10.40;99.90;;;;;;5022404;28;20427;-46
2021/11/09 00:09:20;;;;;;;11.67;5.70;;;10.50;99.90;;;;;;5005316;28;20444;-45
2021/11/09 00:11:46;;;;;;;14.83;6.83;;;10.30;99.90;;;;;;5008503;28;20430;-48
2021/11/09 00:14:12;;;;;;;13.57;6.93;;;10.30;99.90;;;;;;5006418;28;20300;-47
2021/11/09 00:16:38;;;;;;;15.97;6.03;;;10.50;99.90;;;;;;5011021;28;20174;-45
2021/11/09 00:19:04;;;;;;;11.60;6.10;;;10.40;99.90;;;;;;5012210;28;20191;-45
2021/11/09 00:21:31;;;;;;;12.77;6.60;;;10.50;99.90;;;;;;5019442;28;20433;-45
2021/11/09 00:24:00;;;;;;;19.03;6.70;;;10.50;99.90;;;;;;5006339;28;20961;-46
2021/11/09 00:26:27;;;;;;;9.17;5.73;;;10.20;99.90;;;;;;5016579;28;20417;-45
2021/11/09 00:28:54;;;;;;;14.03;6.20;;;9.90;99.90;;;;;;5007573;28;20944;-46
2021/11/09 00:31:20;;;;;;;10.37;5.20;;;9.70;99.90;;;;;;5010290;28;20426;-48
2021/11/09 00:33:46;;;;;;;14.00;6.60;;;9.60;99.90;;;;;;5020799;28;20939;-47
2021/11/09 00:36:11;;;;;;;8.73;5.77;;;9.50;99.90;;;;;;5016470;28;20179;-46
2021/11/09 00:38:37;;;;;;;16.63;7.00;;;9.50;99.90;;;;;;5010826;28;20622;-45
2021/11/09 00:41:04;;;;;;;10.90;5.50;;;9.70;99.90;;;;;;5016534;28;20198;-46
2021/11/09 00:43:30;;;;;;;12.67;6.50;;;9.60;99.90;;;;;;5009094;28;20625;-47
2021/11/09 00:45:55;;;;;;;14.37;7.07;;;9.50;99.90;;;;;;5010607;28;20530;-46
2021/11/09 00:48:21;;;;;;;16.43;6.80;;;9.50;99.90;;;;;;5018354;28;20688;-45
2021/11/09 00:50:48;;;;;;;12.43;5.97;;;9.50;99.90;;;;;;5026651;28;20277;-45
2021/11/09 00:53:17;;;;;;;14.33;6.47;;;9.40;99.90;;;;;;5021036;28;20191;-48
2021/11/09 00:55:44;;;;;;;13.27;6.07;;;9.30;99.90;;;;;;5022935;28;20534;-45
2021/11/09 00:58:11;;;;;;;11.03;7.00;;;9.20;99.90;;;;;;5010780;28;20445;-46
2021/11/09 01:00:38;;;;;;;15.27;6.30;;;9.10;99.90;;;;;;5010542;28;20426;-47
2021/11/09 01:03:06;;;;;;;11.47;6.27;;;9.00;99.90;;;;;;5013135;28;20438;-47
2021/11/09 01:05:33;;;;;;;14.30;6.60;;;9.10;99.90;;;;;;5025514;28;20813;-48
2021/11/09 01:08:03;;;;;;;11.53;6.50;;;9.10;99.90;;;;;;5010434;28;20548;-45
2021/11/09 01:10:33;;;;;;;16.37;6.63;;;9.00;99.90;;;;;;5010458;28;20422;-45
2021/11/09 01:13:00;;;;;;;22.27;6.60;;;9.10;99.90;;;;;;5022098;28;20501;-46
2021/11/09 01:15:27;;;;;;;13.87;6.70;;;9.00;99.90;;;;;;5009059;28;20426;-45
2021/11/09 01:17:54;;;;;;;17.10;7.17;;;9.00;99.90;;;;;;5019248;28;20441;-45
2021/11/09 01:20:22;;;;;;;12.13;6.90;;;9.10;99.90;;;;;;5018469;28;20526;-46
2021/11/09 01:22:52;;;;;;;12.10;7.07;;;9.20;99.90;;;;;;5016830;28;20945;-45
2021/11/09 01:25:20;;;;;;;21.43;7.70;;;8.90;99.90;;;;;;5010015;28;20492;-45
2021/11/09 01:27:46;;;;;;;14.93;6.47;;;9.00;99.90;;;;;;5018522;28;20748;-46
2021/11/09 01:30:13;;;;;;;14.07;6.50;;;8.80;99.90;;;;;;5010017;28;20422;-50
2021/11/09 01:32:39;;;;;;;11.27;6.10;;;8.90;99.90;;;;;;5010868;28;20437;-45
2021/11/09 01:35:07;;;;;;;15.23;7.07;;;8.70;99.90;;;;;;5019736;28;20432;-47
2021/11/09 01:37:33;;;;;;;15.40;7.00;;;8.80;99.90;;;;;;5026342;28;20583;-45
2021/11/09 01:40:00;;;;;;;16.30;7.47;;;9.00;99.90;;;;;;5013880;28;20527;-45
2021/11/09 01:42:26;;;;;;;15.67;7.47;;;9.00;99.90;;;;;;5012978;28;20426;-45
2021/11/09 01:44:52;;;;;;;19.57;7.03;;;9.20;99.90;;;;;;5008663;28;20539;-44
2021/11/09 01:47:18;;;;;;;13.23;7.90;;;9.10;99.90;;;;;;5009662;28;21030;-46
2021/11/09 01:49:44;;;;;;;13.77;6.80;;;9.20;99.90;;;;;;5022060;28;20433;-44
2021/11/09 01:52:10;;;;;;;14.53;7.50;;;9.30;99.90;;;;;;5019371;28;20451;-45
2021/11/09 01:54:36;;;;;;;14.97;7.90;;;9.10;99.90;;;;;;5016168;28;20413;-45
2021/11/09 01:58:16;;;;;;;17.80;7.00;;;9.00;99.90;;;;;;5028813;28;20471;-46
2021/11/09 02:00:21;;;;;;;16.93;6.80;;;8.80;99.90;;;;;;5014283;28;20437;-45
2021/11/09 02:02:47;;;;;;;13.53;7.27;;;8.70;99.90;;;;;;5007436;28;20861;-47
2021/11/09 02:05:14;;;;;;;10.23;6.80;;;8.50;99.90;;;;;;5008553;28;20418;-47
2021/11/09 02:07:46;;;;;;;12.50;7.07;;;8.50;99.90;;;;;;5010351;28;20211;-44
2021/11/09 02:10:12;;;;;;;11.77;6.90;;;8.50;99.90;;;;;;5008196;28;20430;-44
2021/11/09 02:12:38;;;;;;;17.07;7.30;;;8.30;99.90;;;;;;5016847;28;20422;-45
2021/11/09 02:15:06;;;;;;;19.47;8.37;;;8.10;99.90;;;;;;5007542;28;20770;-46
2021/11/09 02:17:32;;;;;;;21.97;7.93;;;8.10;99.90;;;;;;5013039;28;20528;-45
2021/11/09 02:19:58;;;;;;;12.73;6.37;;;8.20;99.90;;;;;;5023768;28;20547;-47
2021/11/09 02:22:26;;;;;;;14.27;7.63;;;8.20;99.90;;;;;;5023837;28;20501;-45
2021/11/09 02:24:52;;;;;;;15.90;7.90;;;8.20;99.90;;;;;;5014542;28;20449;-46
2021/11/09 02:27:17;;;;;;;13.30;7.77;;;8.00;99.90;;;;;;5012162;28;20960;-45
2021/11/09 02:29:43;;;;;;;16.23;7.23;;;8.20;99.90;;;;;;5007602;28;20191;-46
2021/11/09 02:32:09;;;;;;;20.60;8.07;;;8.10;99.90;;;;;;5007879;28;20729;-45
2021/11/09 02:34:34;;;;;;;17.23;6.87;;;8.20;99.90;;;;;;5013222;28;20438;-48
2021/11/09 02:37:00;;;;;;;15.93;8.00;;;8.40;99.90;;;;;;5022489;28;20194;-46
2021/11/09 02:39:26;;;;;;;15.57;7.83;;;8.40;99.90;;;;;;5007509;28;20210;-45
2021/11/09 02:41:51;;;;;;;11.60;6.87;;;8.60;99.90;;;;;;5007973;28;20191;-47
2021/11/09 02:44:20;;;;;;;15.50;7.47;;;8.60;99.90;;;;;;5007066;28;20195;-46
2021/11/09 02:46:51;;;;;;;18.07;7.97;;;8.40;99.90;;;;;;5007296;28;20183;-45
2021/11/09 02:49:54;;;;;;;15.13;7.80;;;8.40;99.90;;;;;;5015271;28;20438;-45
2021/11/09 02:52:09;;;;;;;18.30;7.57;;;8.40;99.90;;;;;;5013553;28;20525;-45
2021/11/09 02:54:39;;;;;;;15.07;7.10;;;8.40;99.90;;;;;;5009666;28;20441;-45
2021/11/09 02:57:26;;;;;;;21.50;7.47;;;8.20;99.90;;;;;;4989347;28;1094444;-45
2021/11/09 03:00:06;;;;;;;14.77;8.33;;;8.20;99.90;;;;;;5008239;28;20341;-47
2021/11/09 03:02:42;;;;;;;15.50;8.03;;;8.00;99.90;;;;;;5008150;28;20426;-45
2021/11/09 03:05:20;;;;;;;14.13;8.10;;;8.00;99.90;;;;;;5024238;28;20502;-46
2021/11/09 03:07:51;;;;;;;14.67;7.40;;;7.90;99.90;;;;;;5018587;28;20453;-45
2021/11/09 03:12:54;;;;;;;16.80;7.93;;;8.20;99.90;;;;;;5007609;28;20864;-45
2021/11/09 03:15:25;;;;;;;16.90;7.60;;;8.20;99.90;;;;;;5007935;28;20555;-44
2021/11/09 03:17:56;;;;;;;16.67;8.17;;;8.30;99.90;;;;;;5013201;28;20956;-46
2021/11/09 03:39:57;;;;;;;19.00;7.47;;;8.30;99.90;;;;;;5025601;28;20437;-46
2021/11/09 03:45:17;;;;;;;11.00;7.33;;;8.30;99.90;;;;;;5007849;28;20465;-46
2021/11/09 03:47:47;;;;;;;21.27;8.60;;;8.20;99.90;;;;;;5007342;28;20482;-46
2021/11/09 03:50:15;;;;;;;17.33;8.57;;;8.20;99.90;;;;;;5017031;28;20429;-47
2021/11/09 03:52:48;;;;;;;15.60;8.57;;;8.10;99.90;;;;;;5019543;28;20420;-47
2021/11/09 03:55:17;;;;;;;16.40;9.60;;;8.30;99.90;;;;;;5016178;28;20421;-45
2021/11/09 03:58:04;;;;;;;15.47;8.97;;;8.20;99.90;;;;;;5024393;28;21061;-45
2021/11/09 04:14:46;;;;;;;14.13;8.70;;;7.90;99.90;;;;;;5010706;28;20465;-45
2021/11/09 04:17:06;;;;;;;16.57;8.33;;;7.70;99.90;;;;;;5015819;28;20495;-45
2021/11/09 04:25:17;;;;;;;14.00;8.37;;;7.60;99.90;;;;;;5012785;28;20453;-45
2021/11/09 04:27:55;;;;;;;14.37;9.03;;;7.50;99.90;;;;;;5020107;28;20476;-47
2021/11/09 04:33:15;;;;;;;13.13;8.23;;;7.00;99.90;;;;;;5010541;28;21256;-46
2021/11/09 04:36:48;;;;;;;18.73;9.73;;;7.10;99.90;;;;;;5017954;28;20450;-45
2021/11/09 05:02:54;;;;;;;21.17;9.87;;;7.60;99.90;;;;;;5009491;28;20453;-45
2021/11/09 05:08:27;;;;;;;15.57;8.20;;;7.60;99.90;;;;;;5020915;28;20514;-45
2021/11/09 05:10:56;;;;;;;18.37;9.50;;;7.60;99.90;;;;;;5009226;28;20516;-47
2021/11/09 05:13:22;;;;;;;15.63;9.23;;;7.60;99.90;;;;;;5017742;28;20417;-44
2021/11/09 05:15:48;;;;;;;18.90;9.27;;;7.60;99.90;;;;;;5011462;28;20996;-45
2021/11/09 05:18:14;;;;;;;14.07;8.43;;;7.60;99.90;;;;;;5015354;28;20438;-45
2021/11/09 05:20:41;;;;;;;18.47;9.70;;;7.80;99.90;;;;;;5015186;28;20503;-46
2021/11/09 05:23:07;;;;;;;13.50;8.77;;;7.70;99.90;;;;;;5019769;28;20792;-46
2021/11/09 05:25:33;;;;;;;15.90;9.00;;;7.60;99.90;;;;;;5010586;28;20440;-45
2021/11/09 05:27:59;;;;;;;19.67;9.20;;;7.40;99.90;;;;;;5013913;28;20839;-47
2021/11/09 05:30:25;;;;;;;14.60;9.60;;;7.10;99.90;;;;;;5011282;28;20481;-45
2021/11/09 05:32:53;;;;;;;17.20;9.83;;;7.00;99.90;;;;;;5009030;28;20195;-46
2021/11/09 05:35:20;;;;;;;16.33;8.90;;;7.00;99.90;;;;;;5014152;28;20437;-45
2021/11/09 05:37:48;;;;;;;13.43;9.00;;;6.70;99.90;;;;;;5026517;28;20461;-45
2021/11/09 05:40:15;;;;;;;15.30;8.57;;;6.70;99.90;;;;;;5020194;28;20774;-45
2021/11/09 05:42:41;;;;;;;14.73;8.70;;;6.60;99.90;;;;;;5007769;28;20469;-45
2021/11/09 05:45:09;;;;;;;15.03;8.40;;;6.70;99.90;;;;;;5015486;28;20926;-46
2021/11/09 05:47:35;;;;;;;17.83;9.53;;;6.50;99.90;;;;;;5022572;28;20959;-48
2021/11/09 05:50:01;;;;;;;15.73;8.67;;;6.60;99.90;;;;;;5017751;28;20434;-45
2021/11/09 05:52:27;;;;;;;12.43;9.23;;;6.80;99.90;;;;;;5021148;28;20841;-45
2021/11/09 05:54:52;;;;;;;15.07;9.20;;;6.80;99.90;;;;;;5020380;28;20464;-48
2021/11/09 05:57:18;;;;;;;16.67;8.80;;;6.90;99.90;;;;;;5029025;28;20375;-46
2021/11/09 05:59:44;;;;;;;10.30;7.63;;;6.90;99.90;;;;;;5023775;28;20203;-45
2021/11/09 06:02:10;;;;;;;16.73;9.10;;;6.90;99.90;;;;;;5009394;28;20222;-47
2021/11/09 06:04:35;;;;;;;19.70;10.00;;;6.90;99.90;;;;;;5009871;28;20275;-45
2021/11/09 06:07:01;;;;;;;16.00;8.37;;;7.00;99.90;;;;;;5015598;28;20201;-45
2021/11/09 06:09:30;;;;;;;14.33;9.10;;;6.90;99.90;;;;;;5018258;28;20183;-45
2021/11/09 06:11:55;;;;;;;20.63;9.03;;;6.90;99.90;;;;;;5009132;28;20839;-45
2021/11/09 06:14:21;;;;;;;13.40;8.13;;;6.90;99.90;;;;;;5016342;28;20422;-48
2021/11/09 06:16:47;;;;;;;12.83;8.20;;;7.00;99.90;;;;;;5013828;28;20178;-45
2021/11/09 06:19:12;;;;;;;16.23;9.10;;;6.80;99.90;;;;;;5009830;28;20257;-45
2021/11/09 06:21:38;;;;;;;12.70;9.53;;;6.90;99.90;;;;;;5009300;28;20198;-45
2021/11/09 06:24:04;;;;;;;17.30;9.23;;;6.60;99.90;;;;;;5016162;28;20191;-46
2021/11/09 06:26:30;;;;;;;18.27;9.30;;;6.50;99.90;;;;;;5008763;28;20662;-46
2021/11/09 06:28:58;;;;;;;18.90;7.80;;;6.80;99.90;;;;;;5010305;28;20470;-45
2021/11/09 06:31:27;;;;;;;20.50;8.87;;;6.60;99.90;;;;;;5008655;28;20194;-45
2021/11/09 06:33:53;;;;;;;15.53;8.93;;;6.60;99.90;;;;;;5008022;28;20428;-45
2021/11/09 06:36:18;;;;;;;21.43;9.77;;;6.80;99.90;;;;;;5008564;28;20438;-45
2021/11/09 06:38:45;;;;;;;17.40;10.10;;;7.00;99.90;;;;;;5014735;28;20194;-48
2021/11/09 06:41:10;;;;;;;20.23;9.60;;;6.70;99.90;;;;;;5020960;28;20445;-48
2021/11/09 06:43:36;;;;;;;15.00;9.00;;;7.10;99.90;;;;;;5023592;28;20449;-47
2021/11/09 06:46:02;;;;;;;15.40;9.50;;;7.00;99.90;;;;;;5015336;28;20193;-46
2021/11/09 06:48:29;;;;;;;17.43;9.00;;;7.10;99.90;;;;;;5023188;28;20218;-45
2021/11/09 06:50:55;;;;;;;18.40;8.80;;;7.20;99.90;;;;;;5015391;28;20436;-46
2021/11/09 06:53:21;;;;;;;21.50;10.20;;;7.20;99.90;;;;;;5010639;28;20430;-47
2021/11/09 06:55:47;;;;;;;15.23;10.13;;;7.30;99.90;;;;;;5024413;28;20421;-45
2021/11/09 06:58:13;;;;;;;14.77;9.50;;;7.10;99.90;;;;;;5024859;28;20449;-45
2021/11/09 07:00:39;;;;;;;13.67;8.90;;;7.40;99.90;;;;;;5022608;28;20277;-44
2021/11/09 07:03:05;;;;;;;16.30;9.47;;;7.50;99.90;;;;;;5014489;28;20464;-45
2021/11/09 07:05:31;;;;;;;19.37;8.90;;;7.50;99.90;;;;;;5012760;28;20853;-46
2021/11/09 07:07:57;;;;;;;12.50;8.80;;;7.50;99.90;;;;;;5020296;28;20475;-45
2021/11/09 07:10:23;;;;;;;16.20;9.57;;;7.50;99.90;;;;;;5025034;28;20936;-48
2021/11/09 07:12:49;;;;;;;13.50;8.80;;;7.60;99.90;;;;;;5007489;28;20535;-45
2021/11/09 07:15:17;;;;;;;12.77;7.73;;;7.60;99.90;;;;;;5008775;28;20422;-45
2021/11/09 07:17:44;;;;;;;16.53;9.10;;;7.60;99.90;;;;;;5016087;28;20203;-47
2021/11/09 07:20:14;;;;;;;14.67;9.07;;;7.70;99.90;;;;;;5018776;28;20458;-47
2021/11/09 07:22:39;;;;;;;15.43;10.27;;;7.70;99.90;;;;;;5014741;28;20882;-47
2021/11/09 07:25:06;;;;;;;16.37;8.20;;;7.70;99.90;;;;;;5024703;28;20437;-47
2021/11/09 07:27:32;;;;;;;14.37;9.03;;;7.70;99.90;;;;;;5016952;28;20464;-44
2021/11/09 07:29:58;;;;;;;14.07;7.83;;;7.80;99.90;;;;;;5011288;28;20485;-46
2021/11/09 07:32:25;;;;;;;17.87;8.37;;;7.90;99.90;;;;;;5019596;28;20421;-45
2021/11/09 07:34:51;;;;;;;15.83;8.00;;;8.00;99.90;;;;;;5015651;28;20429;-48
2021/11/09 07:37:18;;;;;;;15.73;7.70;;;7.80;99.90;;;;;;5016991;28;20531;-45
2021/11/09 07:39:44;;;;;;;10.23;7.60;;;7.80;99.90;;;;;;5017597;28;20727;-45
2021/11/09 07:42:10;;;;;;;11.57;8.07;;;8.00;99.90;;;;;;5006700;28;20740;-46
2021/11/09 07:44:36;;;;;;;13.97;7.70;;;8.20;99.90;;;;;;5014378;28;20220;-48
2021/11/09 07:47:02;;;;;;;11.50;8.40;;;8.20;99.90;;;;;;5008030;28;20430;-45
2021/11/09 07:49:28;;;;;;;13.97;8.40;;;8.40;99.90;;;;;;5007021;28;20187;-46
2021/11/09 07:51:54;;;;;;;20.63;8.50;;;8.80;99.90;;;;;;5016860;28;20789;-46
2021/11/09 07:54:24;;;;;;;14.30;7.67;;;9.00;99.90;;;;;;5017881;28;20417;-45
2021/11/09 07:56:57;;;;;;;11.13;6.77;;;9.30;99.90;;;;;;5018882;28;20464;-48
2021/11/09 08:00:09;;;;;;;16.80;7.67;;;9.50;99.90;;;;;;5015105;28;20425;-50
2021/11/09 08:02:25;;;;;;;14.67;7.20;;;9.70;99.90;;;;;;5026144;28;20434;-45
2021/11/09 08:04:57;;;;;;;10.60;6.47;;;10.00;99.90;;;;;;5029973;28;20420;-46
2021/11/09 08:07:25;;;;;;;12.87;6.90;;;10.20;99.90;;;;;;5025382;28;20510;-45
2021/11/09 08:09:52;;;;;;;14.70;8.17;;;10.30;99.90;;;;;;5034897;28;20472;-47
2021/11/09 08:12:18;;;;;;;13.17;6.90;;;10.50;99.90;;;;;;5030645;28;20431;-47
2021/11/09 08:14:43;;;;;;;10.60;6.20;;;10.60;99.90;;;;;;5017760;28;20418;-47
2021/11/09 08:17:09;;;;;;;11.53;6.43;;;10.70;99.90;;;;;;5013140;28;20424;-45
2021/11/09 08:19:35;;;;;;;9.33;5.90;;;10.90;99.90;;;;;;5007195;28;20350;-45
2021/11/09 08:22:03;;;;;;;14.40;6.03;;;11.00;99.90;;;;;;5010259;28;20897;-48
2021/11/09 08:24:30;;;;;;;9.93;5.80;;;11.10;99.90;;;;;;5020253;28;20492;-47
2021/11/09 08:26:58;;;;;;;13.93;6.57;;;11.10;99.90;;;;;;5041500;28;20424;-48
2021/11/09 08:29:27;;;;;;;13.80;6.30;;;11.20;99.90;;;;;;5032974;28;20469;-50
2021/11/09 08:31:58;;;;;;;11.80;7.10;;;11.20;99.90;;;;;;5011026;28;20429;-48
2021/11/09 08:34:27;;;;;;;9.57;5.37;;;11.30;99.90;;;;;;5023751;28;20437;-46
2021/11/09 08:36:53;;;;;;;16.70;6.53;;;11.40;99.90;;;;;;5012678;28;20812;-46
2021/11/09 08:39:27;;;;;;;11.30;6.10;;;11.60;99.90;;;;;;5015146;28;20425;-47
2021/11/09 08:44:21;;;;;;;10.80;6.10;;;11.90;99.90;;;;;;5009398;28;20425;-49
2021/11/09 08:46:52;;;;;;;12.40;5.97;;;12.00;99.90;;;;;;5008360;28;20429;-47
2021/11/09 08:49:20;;;;;;;11.07;5.90;;;12.10;99.90;;;;;;5007307;28;20512;-46
2021/11/09 08:51:49;;;;;;;8.57;4.87;;;12.20;99.90;;;;;;5013664;28;20517;-47
2021/11/09 08:54:25;;;;;;;10.90;5.20;;;12.40;99.90;;;;;;5023412;28;21245;-46
2021/11/09 08:57:00;;;;;;;8.97;5.43;;;12.50;99.90;;;;;;5016818;28;20445;-46
2021/11/09 09:04:55;;;;;;;9.23;4.47;;;13.20;99.90;;;;;;5017410;28;20425;-46
2021/11/09 09:07:28;;;;;;;10.60;4.70;;;13.30;99.90;;;;;;5023267;28;21006;-49
2021/11/09 09:09:56;;;;;;;9.10;4.43;;;13.60;99.90;;;;;;5016643;28;20425;-48
2021/11/09 09:12:22;;;;;;;6.27;4.17;;;13.70;99.90;;;;;;5010043;28;20464;-48
2021/11/09 09:14:48;;;;;;;7.37;4.00;;;13.80;99.90;;;;;;5014510;28;20833;-46
2021/11/09 09:17:14;;;;;;;6.63;3.70;;;13.80;99.90;;;;;;5021446;28;20498;-46
2021/11/09 09:19:54;;;;;;;7.73;4.70;;;14.10;99.90;;;;;;5009902;28;20445;-46
2021/11/09 09:22:25;;;;;;;7.23;3.50;;;14.30;99.90;;;;;;5017934;28;20845;-48
2021/11/09 09:29:57;;;;;;;6.70;3.50;;;15.00;99.70;;;;;;5013645;28;20452;-47
2021/11/09 09:52:19;;;;;;;6.33;3.57;;;15.80;97.40;;;;;;5012352;28;20519;-49
2021/11/09 09:57:29;;;;;;;3.80;2.87;;;16.00;96.60;;;;;;5009632;28;20500;-48
2021/11/09 09:59:56;;;;;;;9.03;3.10;;;15.80;97.00;;;;;;5016613;28;20578;-47
2021/11/09 10:02:25;;;;;;;4.67;2.90;;;15.90;96.70;;;;;;5012499;28;21104;-48
2021/11/09 10:05:09;;;;;;;4.27;2.27;;;15.90;96.00;;;;;;5008395;28;20411;-46
2021/11/09 10:07:39;;;;;;;3.60;2.43;;;16.10;96.10;;;;;;5015370;28;20475;-45
2021/11/09 10:10:11;;;;;;;2.57;2.33;;;16.20;95.30;;;;;;5021159;28;20784;-49
2021/11/09 10:12:42;;;;;;;9.00;2.93;;;16.20;94.70;;;;;;5022394;28;20430;-46
2021/11/09 10:15:14;;;;;;;6.47;2.77;;;16.30;94.60;;;;;;5012822;28;20421;-46
2021/11/09 10:18:10;;;;;;;5.07;2.60;;;16.20;94.60;;;;;;5014174;28;20459;-46
2021/11/09 10:20:42;;;;;;;4.43;2.57;;;15.50;94.70;;;;;;5008718;28;20438;-46
2021/11/09 10:23:16;;;;;;;3.93;2.30;;;15.40;95.80;;;;;;5020692;28;20831;-46
2021/11/09 10:25:43;;;;;;;6.93;2.53;;;15.20;95.90;;;;;;5022793;28;20438;-49
2021/11/09 10:28:18;;;;;;;3.47;2.63;;;15.10;96.40;;;;;;5014574;28;20535;-46
2021/11/09 10:30:57;;;;;;;4.03;3.00;;;15.00;95.70;;;;;;5007774;28;20417;-47
2021/11/09 10:33:26;;;;;;;5.97;2.37;;;14.90;95.50;;;;;;5007534;28;20444;-48
2021/11/09 10:35:54;;;;;;;4.00;2.10;;;14.70;95.50;;;;;;5007175;28;20654;-47
2021/11/09 10:38:29;;;;;;;5.03;2.60;;;14.50;96.60;;;;;;5012017;28;20430;-46
2021/11/09 10:40:55;;;;;;;7.40;3.53;;;14.20;96.50;;;;;;5012056;28;20876;-45
2021/11/09 10:43:28;;;;;;;2.60;2.00;;;14.00;96.60;;;;;;5010415;28;20421;-45
2021/11/09 10:45:54;;;;;;;4.30;2.87;;;14.00;96.50;;;;;;5016709;28;20449;-45
2021/11/09 10:48:33;;;;;;;4.37;2.60;;;13.90;97.40;;;;;;5007198;28;20484;-46
2021/11/09 10:51:01;;;;;;;4.30;2.30;;;14.00;97.30;;;;;;5002984;28;20765;-46
2021/11/09 10:53:34;;;;;;;3.33;2.47;;;14.00;97.30;;;;;;5021783;28;20467;-47
2021/11/09 10:56:54;;;;;;;4.87;2.27;;;13.90;97.90;;;;;;5019533;28;20421;-47
2021/11/09 10:59:49;;;;;;;3.03;1.93;;;13.90;97.90;;;;;;5008172;28;20438;-46
2021/11/09 11:05:22;;;;;;;3.70;2.10;;;13.90;96.90;;;;;;5007718;28;20414;-46
2021/11/09 11:08:00;;;;;;;2.77;1.90;;;13.90;96.80;;;;;;5009485;28;20947;-48
2021/11/09 11:10:32;;;;;;;7.10;2.27;;;13.80;96.60;;;;;;5011492;28;20437;-45
2021/11/09 11:13:54;;;;;;;2.67;1.77;;;13.80;97.00;;;;;;5016510;28;20503;-46
2021/11/09 11:23:40;;;;;;;3.33;2.40;;;13.50;97.70;;;;;;5004293;28;20434;-46
2021/11/09 11:32:57;;;;;;;4.77;2.53;;;13.80;96.80;;;;;;5022511;28;20503;-46
2021/11/09 11:35:23;;;;;;;7.90;1.97;;;14.10;97.00;;;;;;5019031;28;20925;-48
2021/11/09 11:37:49;;;;;;;3.63;1.80;;;14.30;96.30;;;;;;5025637;28;20443;-46
2021/11/09 11:40:15;;;;;;;4.63;2.03;;;14.50;95.90;;;;;;5009477;28;20615;-48
2021/11/09 11:42:41;;;;;;;5.13;1.90;;;14.70;95.60;;;;;;5011305;28;20465;-48
2021/11/09 11:45:12;;;;;;;4.23;2.17;;;14.80;95.20;;;;;;5007137;28;20444;-48
2021/11/09 11:47:38;;;;;;;3.60;1.93;;;15.00;95.30;;;;;;5007598;28;20476;-49
2021/11/09 11:50:12;;;;;;;3.20;2.00;;;15.20;95.10;;;;;;5012411;28;20520;-46
2021/11/09 12:00:00;;;;;;;3.10;2.20;;;15.40;94.10;;;;;;5008691;28;20430;-45
2021/11/09 12:02:51;;;;;;;2.10;1.80;;;15.50;94.40;;;;;;5007564;28;20814;-46
2021/11/09 12:05:41;;;;;;;5.13;2.07;;;15.50;93.40;;;;;;5007358;28;20437;-45
2021/11/09 12:08:12;;;;;;;3.73;1.93;;;15.40;93.90;;;;;;5013542;28;20472;-48
2021/11/09 12:10:53;;;;;;;5.43;2.43;;;15.40;94.40;;;;;;5027171;28;20437;-46
2021/11/09 12:13:21;;;;;;;4.07;1.83;;;15.40;94.50;;;;;;5015174;28;20556;-46
2021/11/09 12:16:00;;;;;;;7.57;2.40;;;15.30;94.40;;;;;;5018139;28;20446;-47
2021/11/09 12:18:32;;;;;;;5.77;1.77;;;15.20;94.60;;;;;;5011368;28;20871;-46
2021/11/09 12:21:02;;;;;;;4.40;2.10;;;15.20;94.40;;;;;;5006433;28;20461;-46
2021/11/09 12:23:30;;;;;;;5.60;2.27;;;15.10;94.50;;;;;;5006447;28;20426;-47
2021/11/09 12:25:57;;;;;;;5.50;2.07;;;15.10;94.40;;;;;;5008197;28;20430;-47
2021/11/09 12:28:34;;;;;;;2.90;2.03;;;14.90;94.60;;;;;;5018765;28;20917;-46
2021/11/09 12:31:13;;;;;;;4.50;1.97;;;14.80;94.70;;;;;;5017918;28;20447;-48
2021/11/09 12:33:48;;;;;;;2.97;1.73;;;14.70;95.00;;;;;;5010282;28;20429;-45
2021/11/09 12:36:25;;;;;;;5.60;2.30;;;14.60;95.00;;;;;;5018972;28;20531;-46
2021/11/09 12:38:54;;;;;;;5.00;1.80;;;14.50;95.50;;;;;;5010963;28;20429;-47
2021/11/09 12:41:23;;;;;;;1.87;1.67;;;14.50;95.40;;;;;;5009248;28;20862;-45
2021/11/09 12:43:51;;;;;;;6.47;2.30;;;14.50;95.30;;;;;;5024444;28;20738;-45
2021/11/09 12:46:43;;;;;;;3.23;1.60;;;14.50;95.20;;;;;;5023689;28;20501;-45
2021/11/09 12:49:14;;;;;;;2.00;1.80;;;14.40;95.40;;;;;;5010736;28;21141;-48
2021/11/09 12:51:43;;;;;;;6.30;3.33;;;14.40;95.70;;;;;;5015362;28;20441;-46
2021/11/09 12:54:12;;;;;;;6.70;2.40;;;14.40;95.40;;;;;;5010088;28;20483;-45
2021/11/09 12:56:45;;;;;;;4.10;2.37;;;14.30;95.80;;;;;;5008863;28;20426;-45
2021/11/09 12:59:28;;;;;;;5.40;1.87;;;14.10;96.60;;;;;;5022595;28;20449;-48
2021/11/09 13:02:09;;;;;;;3.20;1.90;;;14.10;96.70;;;;;;5017812;28;20877;-47
2021/11/09 13:09:59;;;;;;;4.73;2.43;;;14.00;96.30;;;;;;5010635;28;20442;-45
2021/11/09 13:12:32;;;;;;;6.80;2.53;;;14.00;96.50;;;;;;5009300;28;20528;-45
2021/11/09 13:15:01;;;;;;;3.93;2.33;;;14.00;96.50;;;;;;5017693;28;20422;-46
2021/11/09 13:17:35;;;;;;;4.73;2.27;;;14.00;96.20;;;;;;5017658;28;20484;-45
2021/11/09 13:20:16;;;;;;;3.27;2.40;;;14.00;96.70;;;;;;5010121;28;20631;-45
2021/11/09 13:22:50;;;;;;;5.10;2.13;;;13.90;96.50;;;;;;5019752;28;20422;-45
2021/11/09 13:25:17;;;;;;;2.67;2.00;;;13.90;96.80;;;;;;5010171;28;20413;-46
2021/11/09 13:27:48;;;;;;;6.07;2.20;;;13.80;97.10;;;;;;5009798;28;20461;-46
2021/11/09 13:30:20;;;;;;;3.50;1.80;;;13.80;97.50;;;;;;5019287;28;20988;-45
2021/11/09 13:32:51;;;;;;;6.00;2.40;;;13.80;96.30;;;;;;5025247;28;20417;-46
2021/11/09 13:35:39;;;;;;;5.53;2.50;;;13.80;97.70;;;;;;5010934;28;20425;-46
2021/11/09 13:38:17;;;;;;;5.30;2.30;;;13.70;97.40;;;;;;5011508;28;20437;-46
2021/11/09 13:40:48;;;;;;;3.10;2.13;;;13.60;97.10;;;;;;5009845;28;20425;-46
2021/11/09 13:43:17;;;;;;;2.70;1.97;;;13.60;97.10;;;;;;5010264;28;20931;-47
2021/11/09 13:45:43;;;;;;;4.63;2.00;;;13.60;97.60;;;;;;5018400;28;20435;-45
2021/11/09 13:48:17;;;;;;;4.17;2.30;;;13.70;97.70;;;;;;5017179;28;20474;-47
2021/11/09 13:50:45;;;;;;;2.50;1.53;;;13.80;97.20;;;;;;5009643;28;20681;-49
2021/11/09 13:53:12;;;;;;;3.87;1.80;;;13.70;97.30;;;;;;5020116;28;20513;-45
2021/11/09 13:55:40;;;;;;;5.57;2.57;;;13.80;97.10;;;;;;5020990;28;20424;-47
2021/11/09 13:58:09;;;;;;;3.10;2.03;;;13.80;97.10;;;;;;5027879;28;20972;-45
2021/11/09 14:00:59;;;;;;;5.13;2.00;;;13.80;97.20;;;;;;5019279;28;20426;-47
2021/11/09 14:16:38;;;;;;;4.00;2.30;;;13.50;97.40;;;;;;5022685;28;20429;-49
2021/11/09 14:19:10;;;;;;;4.37;2.00;;;13.50;97.40;;;;;;5021448;28;20441;-48
2021/11/09 14:21:39;;;;;;;2.30;1.80;;;13.50;98.00;;;;;;5010224;28;20780;-46
2021/11/09 14:24:13;;;;;;;7.47;2.47;;;13.40;98.00;;;;;;5009126;28;21063;-47
2021/11/09 14:26:41;;;;;;;4.77;2.30;;;13.40;97.90;;;;;;5008785;28;20426;-52
2021/11/09 14:29:22;;;;;;;5.57;2.00;;;13.40;98.20;;;;;;5010539;28;20473;-48
2021/11/09 14:32:00;;;;;;;7.13;2.93;;;13.30;98.40;;;;;;5022514;28;20425;-49
2021/11/09 14:34:27;;;;;;;4.00;2.20;;;13.30;98.30;;;;;;5014736;28;20436;-46
2021/11/09 14:37:04;;;;;;;3.83;2.00;;;13.20;98.50;;;;;;5011627;28;20426;-49
2021/11/09 14:39:30;;;;;;;3.47;2.57;;;13.20;98.50;;;;;;5015577;28;20438;-49
2021/11/09 14:42:26;;;;;;;6.20;2.70;;;13.10;98.20;;;;;;5008373;28;20449;-46
2021/11/09 14:45:38;;;;;;;4.70;2.30;;;13.10;98.40;;;;;;5014608;28;20556;-47
2021/11/09 14:48:12;;;;;;;3.70;2.60;;;13.10;98.40;;;;;;5017078;28;20993;-49
2021/11/09 14:50:48;;;;;;;8.73;2.50;;;13.00;98.70;;;;;;5008337;28;20433;-45
2021/11/09 14:53:22;;;;;;;7.40;2.40;;;13.00;98.60;;;;;;5015244;28;20436;-44
2021/11/09 14:55:56;;;;;;;5.23;2.27;;;13.00;98.70;;;;;;5021119;28;20428;-45
2021/11/09 14:58:33;;;;;;;2.83;2.10;;;12.90;98.70;;;;;;5008656;28;20464;-46
2021/11/09 15:01:06;;;;;;;4.90;2.50;;;12.90;99.70;;;;;;5022678;28;20424;-45
2021/11/09 15:03:51;;;;;;;4.90;2.60;;;12.80;99.10;;;;;;5023219;28;20439;-48
2021/11/09 15:06:25;;;;;;;5.13;2.57;;;12.80;98.90;;;;;;5008512;28;20793;-46
2021/11/09 15:08:57;;;;;;;5.30;2.80;;;12.80;99.00;;;;;;5011609;28;20472;-46
2021/11/09 15:11:28;;;;;;;3.37;2.20;;;12.80;99.40;;;;;;5008153;28;20822;-45
2021/11/09 15:28:10;;;;;;;6.93;2.50;;;12.30;99.90;;;;;;5007601;28;20704;-47
2021/11/09 15:30:39;;;;;;;3.70;2.53;;;12.30;99.90;;;;;;5007103;28;20445;-45
2021/11/09 15:33:05;;;;;;;6.13;2.50;;;12.30;99.90;;;;;;5009867;28;20440;-48
2021/11/09 15:35:45;;;;;;;4.27;2.40;;;12.40;99.90;;;;;;5007573;28;20462;-45
2021/11/09 15:38:11;;;;;;;8.57;2.87;;;12.30;99.90;;;;;;5016536;28;20429;-45
2021/11/09 15:40:37;;;;;;;8.63;3.20;;;12.20;99.90;;;;;;5007359;28;20492;-46
2021/11/09 15:43:03;;;;;;;5.80;2.83;;;12.20;99.90;;;;;;5006637;28;20587;-45
2021/11/09 15:45:29;;;;;;;6.47;2.80;;;11.90;99.90;;;;;;5015495;28;20193;-47
2021/11/09 15:47:55;;;;;;;5.07;2.50;;;12.00;99.90;;;;;;5019041;28;20457;-45
2021/11/09 15:50:20;;;;;;;5.83;4.33;;;11.80;99.90;;;;;;5007665;28;20245;-46